Time;durP1;ratioP1;P1;durP2;ratioP2;P2;SDS_P1;SDS_P2;PMS_P1;PMS_P2;Temp;Humidity;BMP_temperature;BMP_pressure;BME280_temperature;BME280_humidity;BME280_pressure;Samples;Min_cycle;Max_cycle;Signal;HPM_P1;HPM_P2
2022/05/30 00:03:05;;;;;;;9.13;6.60;;;;;;;18.56;100.00;99247.91;4316180;22;10000715;-73
2022/05/30 00:05:31;;;;;;;7.55;6.35;;;;;;;18.36;100.00;99227.09;5033299;28;20136;-72
2022/05/30 00:07:57;;;;;;;9.23;6.53;;;;;;;18.05;100.00;99200.13;5034057;28;20222;-73
2022/05/30 00:10:23;;;;;;;9.90;6.18;;;;;;;18.52;100.00;99246.50;5034327;28;20068;-72
2022/05/30 00:12:48;;;;;;;9.23;6.28;;;;;;;18.39;100.00;99258.56;5034139;28;20061;-72
2022/05/30 00:15:17;;;;;;;10.30;7.32;;;;;;;18.37;100.00;99214.13;5033932;28;20034;-73
2022/05/30 00:17:43;;;;;;;10.05;6.45;;;;;;;18.50;100.00;99242.41;5033944;28;20036;-73
2022/05/30 00:20:09;;;;;;;10.27;6.40;;;;;;;18.75;100.00;99252.56;5033906;28;20025;-72
2022/05/30 00:22:35;;;;;;;7.72;6.70;;;;;;;18.54;100.00;99236.09;5033336;28;20029;-72
2022/05/30 00:25:01;;;;;;;10.32;7.05;;;;;;;18.64;100.00;99234.50;5015808;28;20034;-73
2022/05/30 00:27:26;;;;;;;9.40;6.40;;;;;;;18.38;100.00;99187.41;5033501;28;20457;-73
2022/05/30 00:29:52;;;;;;;8.77;6.90;;;;;;;18.26;100.00;99167.75;5033717;28;20040;-72
2022/05/30 00:32:18;;;;;;;8.23;7.05;;;;;;;17.90;100.00;99148.06;5033692;28;20505;-73
2022/05/30 00:34:44;;;;;;;12.38;6.75;;;;;;;18.30;100.00;99184.63;5033687;28;20033;-73
2022/05/30 00:37:09;;;;;;;10.07;6.93;;;;;;;18.39;100.00;99212.25;5015549;28;20052;-73
2022/05/30 00:39:35;;;;;;;9.43;7.10;;;;;;;18.57;100.00;99241.03;5033135;28;20410;-72
2022/05/30 00:42:10;;;;;;;11.95;7.90;;;;;;;18.37;100.00;99231.28;5032856;28;20040;-71
2022/05/30 00:44:35;;;;;;;10.05;7.50;;;;;;;18.74;100.00;99231.13;5015564;28;20025;-73
2022/05/30 00:47:01;;;;;;;12.00;8.00;;;;;;;18.48;100.00;99239.91;5033084;28;20069;-72
2022/05/30 00:49:26;;;;;;;11.40;8.00;;;;;;;18.75;100.00;99244.84;5033060;28;20033;-72
2022/05/30 00:51:55;;;;;;;11.93;8.43;;;;;;;18.50;100.00;99240.63;5033257;28;20092;-73
2022/05/30 00:54:37;;;;;;;10.73;8.77;;;;;;;18.66;100.00;99271.28;5033218;28;20030;-72
2022/05/30 00:57:20;;;;;;;;;;;;;;;18.82;100.00;99277.75;5033447;28;20033;-72
2022/05/30 00:59:57;;;;;;;12.77;8.60;;;;;;;18.53;100.00;99286.75;5015054;28;20449;-73
2022/05/30 01:02:25;;;;;;;18.75;9.95;;;;;;;18.23;100.00;99283.75;5032940;28;20129;-74
2022/05/30 01:07:37;;;;;;;11.07;9.18;;;;;;;18.78;100.00;99321.88;5033018;28;20487;-71
2022/05/30 01:10:06;;;;;;;10.95;9.10;;;;;;;18.68;100.00;99319.13;5032322;28;20100;-72
2022/05/30 01:12:52;;;;;;;13.80;9.43;;;;;;;18.38;100.00;99274.94;5032839;28;20124;-73
2022/05/30 01:15:19;;;;;;;14.30;9.32;;;;;;;18.66;100.00;99318.41;5032128;28;20033;-73
2022/05/30 01:18:03;;;;;;;10.70;8.68;;;;;;;18.61;100.00;99322.25;5032171;28;20033;-72
2022/05/30 01:20:55;;;;;;;14.02;9.50;;;;;;;18.27;100.00;99310.09;5032239;28;20033;-72
2022/05/30 01:23:23;;;;;;;14.50;9.38;;;;;;;18.20;100.00;99297.66;5008858;28;20037;-72
2022/05/30 01:26:12;;;;;;;10.98;9.00;;;;;;;18.48;100.00;99288.03;5032146;28;20033;-73
2022/05/30 01:29:01;;;;;;;13.95;9.38;;;;;;;18.30;100.00;99291.88;5032126;28;20037;-73
2022/05/30 01:31:28;;;;;;;13.02;9.30;;;;;;;18.29;100.00;99247.28;5032214;28;20033;-70
2022/05/30 01:33:53;;;;;;;19.63;9.68;;;;;;;18.40;100.00;99238.81;5032291;28;20038;-72
2022/05/30 01:36:24;;;;;;;13.85;10.25;;;;;;;18.23;100.00;99252.88;5031736;28;20037;-73
2022/05/30 01:38:49;;;;;;;14.27;11.02;;;;;;;17.86;100.00;99167.22;5032076;28;20029;-72
2022/05/30 01:41:15;;;;;;;13.82;11.27;;;;;;;17.80;100.00;99167.63;5032279;28;20052;-72
2022/05/30 01:43:41;;;;;;;17.05;11.75;;;;;;;17.77;100.00;99200.44;5031926;28;20029;-71
2022/05/30 01:46:13;;;;;;;22.08;12.15;;;;;;;17.73;100.00;99175.88;5031732;28;20052;-72
2022/05/30 01:48:38;;;;;;;17.27;12.88;;;;;;;17.58;100.00;99158.94;5031749;28;20487;-73
2022/05/30 01:51:04;;;;;;;18.27;12.80;;;;;;;17.37;100.00;99120.13;5031313;28;20029;-71
2022/05/30 01:53:29;;;;;;;15.25;13.30;;;;;;;17.64;100.00;99128.50;5031664;28;20037;-72
2022/05/30 01:55:55;;;;;;;15.57;12.75;;;;;;;17.15;100.00;99096.84;5032227;28;20043;-73
2022/05/30 01:58:21;;;;;;;16.73;12.82;;;;;;;17.29;100.00;99063.31;5031679;28;20033;-72
2022/05/30 02:00:47;;;;;;;20.83;12.98;;;;;;;17.50;100.00;99122.69;5031458;28;20116;-72
2022/05/30 02:03:12;;;;;;;19.92;14.10;;;;;;;17.15;100.00;99094.28;5031297;28;20050;-72
2022/05/30 02:05:37;;;;;;;15.43;12.90;;;;;;;17.40;100.00;99065.94;5031243;28;20501;-72
2022/05/30 02:08:03;;;;;;;17.35;13.13;;;;;;;17.56;100.00;99122.25;5031285;28;20079;-72
2022/05/30 02:10:31;;;;;;;16.02;14.32;;;;;;;17.65;100.00;99127.56;5031323;28;20026;-71
2022/05/30 02:12:57;;;;;;;16.52;14.27;;;;;;;17.75;100.00;99105.41;5031331;28;20044;-72
2022/05/30 02:15:23;;;;;;;17.17;14.65;;;;;;;18.12;100.00;99111.31;5031579;28;20029;-72
2022/05/30 02:17:48;;;;;;;17.65;14.05;;;;;;;18.11;100.00;99074.47;5031502;28;20037;-72
2022/05/30 02:20:14;;;;;;;19.23;14.73;;;;;;;18.07;100.00;99092.81;5030650;28;20492;-73
2022/05/30 02:22:40;;;;;;;17.23;15.07;;;;;;;18.04;100.00;99108.47;5031173;28;20037;-72
2022/05/30 02:25:06;;;;;;;20.63;15.50;;;;;;;18.00;100.00;99099.34;5031530;28;20087;-72
2022/05/30 02:27:31;;;;;;;18.67;15.43;;;;;;;17.89;100.00;99097.53;5031300;28;20036;-71
2022/05/30 02:29:57;;;;;;;16.27;14.50;;;;;;;18.26;100.00;99106.00;5013279;28;20034;-71
2022/05/30 02:32:22;;;;;;;17.85;13.50;;;;;;;18.17;100.00;99071.44;5031093;28;20021;-72
2022/05/30 02:37:32;;;;;;;15.10;11.98;;;;;;;17.93;100.00;99065.53;5031477;28;20151;-71
2022/05/30 02:39:58;;;;;;;17.70;12.60;;;;;;;17.86;100.00;99107.22;5031425;28;20022;-73
2022/05/30 02:42:23;;;;;;;12.95;11.60;;;;;;;17.90;100.00;99113.78;5031008;28;20038;-72
2022/05/30 02:44:49;;;;;;;12.65;11.35;;;;;;;17.89;100.00;99125.00;5013360;28;20030;-72
2022/05/30 02:47:16;;;;;;;13.88;11.77;;;;;;;17.93;100.00;99126.41;5039479;28;20029;-71
2022/05/30 02:49:42;;;;;;;13.30;11.90;;;;;;;18.03;100.00;99138.53;5033005;28;20430;-72
2022/05/30 02:52:08;;;;;;;13.10;11.70;;;;;;;17.74;100.00;99114.06;5050648;28;20029;-72
2022/05/30 02:54:33;;;;;;;13.52;11.65;;;;;;;17.89;100.00;99146.41;5050811;28;20056;-71
2022/05/30 02:56:59;;;;;;;16.98;11.30;;;;;;;17.93;100.00;99152.13;5019613;28;20030;-73
2022/05/30 02:59:26;;;;;;;13.20;11.80;;;;;;;18.23;100.00;99167.13;5013587;28;20064;-72
2022/05/30 03:01:52;;;;;;;16.30;12.35;;;;;;;18.00;100.00;99138.75;5036018;28;20049;-73
2022/05/30 03:04:19;;;;;;;14.40;12.38;;;;;;;18.17;100.00;99155.53;5050924;28;20039;-74
2022/05/30 03:06:45;;;;;;;19.25;12.85;;;;;;;17.97;100.00;99144.09;5051219;28;20520;-75
2022/05/30 03:09:12;;;;;;;15.13;13.45;;;;;;;17.88;100.00;99154.22;5050989;28;20212;-72
2022/05/30 03:11:37;;;;;;;15.25;13.65;;;;;;;18.05;100.00;99174.41;5050985;28;20112;-72
2022/05/30 03:14:03;;;;;;;15.98;14.20;;;;;;;17.59;100.00;99115.13;5050937;28;20120;-71
2022/05/30 03:16:28;;;;;;;15.95;14.38;;;;;;;17.97;100.00;99181.84;5050472;28;20449;-72
2022/05/30 03:18:54;;;;;;;17.75;14.77;;;;;;;18.11;100.00;99172.25;5049799;28;20033;-72
2022/05/30 03:21:20;;;;;;;18.30;14.65;;;;;;;18.02;100.00;99160.03;5051932;28;20108;-77
2022/05/30 03:23:46;;;;;;;18.85;14.93;;;;;;;17.95;100.00;99169.13;5050992;28;20037;-77
2022/05/30 03:26:12;;;;;;;15.93;13.70;;;;;;;17.99;100.00;99182.56;5052373;28;20093;-78
2022/05/30 03:28:38;;;;;;;17.92;14.43;;;;;;;18.03;100.00;99181.44;5033335;28;20029;-78
2022/05/30 03:31:07;;;;;;;16.92;14.27;;;;;;;18.03;100.00;99164.25;5018357;28;20032;-75
2022/05/30 03:33:33;;;;;;;16.40;14.57;;;;;;;18.12;100.00;99185.94;5035030;28;20057;-76
2022/05/30 03:35:59;;;;;;;17.25;15.00;;;;;;;18.35;100.00;99190.25;5034804;28;20021;-75
2022/05/30 03:38:24;;;;;;;16.83;14.38;;;;;;;18.49;100.00;99199.56;5034264;28;20075;-75
2022/05/30 03:40:50;;;;;;;18.95;15.02;;;;;;;18.30;100.00;99206.94;5034853;28;20040;-75
2022/05/30 03:43:15;;;;;;;18.60;15.05;;;;;;;18.31;100.00;99200.84;5035086;28;20042;-73
2022/05/30 03:45:42;;;;;;;16.92;15.10;;;;;;;18.21;100.00;99174.97;5034632;28;20033;-86
2022/05/30 03:48:10;;;;;;;16.42;14.43;;;;;;;18.00;100.00;99169.63;5016458;28;20034;-79
2022/05/30 03:50:38;;;;;;;18.58;14.80;;;;;;;18.29;100.00;99188.09;5048391;28;20083;-82
2022/05/30 03:53:06;;;;;;;16.42;14.27;;;;;;;18.29;100.00;99221.56;5054807;28;20033;-83
2022/05/30 03:55:43;;;;;;;16.08;13.63;;;;;;;18.47;100.00;99222.84;5054825;28;20029;-78
2022/05/30 03:58:11;;;;;;;16.67;14.90;;;;;;;18.22;100.00;99194.63;5054371;28;20478;-77
2022/05/30 04:00:38;;;;;;;17.60;14.35;;;;;;;18.45;100.00;99211.00;5055030;28;20087;-83
2022/05/30 04:03:04;;;;;;;18.80;14.85;;;;;;;18.73;100.00;99247.53;5055140;28;20057;-77
2022/05/30 04:05:30;;;;;;;18.42;14.95;;;;;;;18.83;100.00;99248.50;5036602;28;20036;-77
2022/05/30 04:07:55;;;;;;;17.55;14.30;;;;;;;18.61;100.00;99251.00;5055247;28;20033;-78
2022/05/30 04:10:21;;;;;;;15.98;14.27;;;;;;;18.72;100.00;99251.03;5050620;28;20040;-80
2022/05/30 04:12:47;;;;;;;16.20;14.52;;;;;;;19.00;100.00;99252.38;5035296;28;20053;-82
2022/05/30 04:15:22;;;;;;;18.58;13.98;;;;;;;18.92;100.00;99255.53;5055710;28;20048;-83
2022/05/30 04:17:48;;;;;;;17.00;12.93;;;;;;;19.33;100.00;99267.94;5055660;28;20029;-78
2022/05/30 04:20:14;;;;;;;17.85;12.82;;;;;;;19.28;100.00;99275.19;5055112;28;20033;-77
2022/05/30 04:22:39;;;;;;;16.60;12.85;;;;;;;19.85;100.00;99275.94;5037241;28;20102;-76
2022/05/30 04:25:05;;;;;;;16.83;13.50;;;;;;;19.69;100.00;99283.22;5055051;28;20087;-78
2022/05/30 04:27:32;;;;;;;18.00;12.80;;;;;;;20.24;100.00;99250.56;5054046;28;20503;-78
2022/05/30 04:29:57;;;;;;;19.50;12.73;;;;;;;20.08;100.00;99268.19;5054561;28;20056;-77
2022/05/30 04:32:23;;;;;;;18.35;13.90;;;;;;;19.85;100.00;99281.09;5054190;28;20121;-74
2022/05/30 04:34:48;;;;;;;16.95;12.90;;;;;;;20.09;100.00;99260.31;5054837;28;20088;-76
2022/05/30 04:37:14;;;;;;;15.32;12.40;;;;;;;20.29;100.00;99288.00;5055188;28;20509;-78
2022/05/30 04:39:40;;;;;;;15.60;13.13;;;;;;;20.38;100.00;99301.94;5054472;28;20037;-74
2022/05/30 04:42:06;;;;;;;16.95;11.80;;;;;;;19.93;100.00;99256.47;5052513;28;20052;-75
2022/05/30 04:44:31;;;;;;;15.13;12.73;;;;;;;20.25;100.00;99268.53;5054087;28;20039;-75
2022/05/30 04:46:58;;;;;;;18.92;12.57;;;;;;;20.37;100.00;99324.38;5053784;28;20029;-74
2022/05/30 04:49:25;;;;;;;24.17;12.75;;;;;;;20.54;100.00;99295.44;5033366;28;20033;-72
2022/05/30 04:51:51;;;;;;;21.95;13.40;;;;;;;19.99;100.00;99336.81;5031763;28;20041;-72
2022/05/30 04:54:17;;;;;;;15.27;13.68;;;;;;;20.40;100.00;99329.28;5030311;28;20030;-71
2022/05/30 04:56:44;;;;;;;18.13;14.00;;;;;;;19.99;100.00;99308.41;5032362;28;20036;-72
2022/05/30 04:59:10;;;;;;;17.80;14.60;;;;;;;19.57;100.00;99307.34;5033322;28;20045;-74
2022/05/30 05:01:36;;;;;;;17.15;13.98;;;;;;;19.82;100.00;99337.28;5032405;28;20029;-72
2022/05/30 05:04:03;;;;;;;20.50;14.95;;;;;;;20.27;100.00;99302.78;5031716;28;20091;-73
2022/05/30 05:06:29;;;;;;;15.98;14.35;;;;;;;20.05;100.00;99302.78;5013563;28;20412;-71
2022/05/30 05:08:59;;;;;;;17.52;14.10;;;;;;;19.78;100.00;99302.34;5030910;28;20029;-72
2022/05/30 05:11:30;;;;;;;18.05;13.95;;;;;;;20.45;100.00;99296.16;5031422;28;20438;-71
2022/05/30 05:13:56;;;;;;;17.77;13.73;;;;;;;20.77;100.00;99357.38;5030989;28;20059;-72
2022/05/30 05:16:25;;;;;;;17.00;12.70;;;;;;;20.43;100.00;99318.72;5030912;28;20120;-71
2022/05/30 05:18:51;;;;;;;17.17;13.07;;;;;;;20.45;100.00;99324.59;5031660;28;20037;-72
2022/05/30 05:21:26;;;;;;;18.80;12.68;;;;;;;20.67;100.00;99306.44;5032377;28;20114;-73
2022/05/30 05:23:52;;;;;;;16.85;12.68;;;;;;;20.99;100.00;99346.97;5031959;28;20083;-73
2022/05/30 05:26:19;;;;;;;18.60;13.13;;;;;;;20.74;100.00;99348.91;5032569;28;20530;-72
2022/05/30 05:28:45;;;;;;;14.77;12.02;;;;;;;20.67;100.00;99362.44;5032200;28;20131;-72
2022/05/30 05:31:17;;;;;;;19.00;11.85;;;;;;;20.66;100.00;99363.38;5014650;28;20030;-72
2022/05/30 05:33:43;;;;;;;17.73;11.90;;;;;;;21.13;100.00;99344.09;5032202;28;20443;-73
2022/05/30 05:36:09;;;;;;;14.25;12.13;;;;;;;21.12;100.00;99360.53;5031685;28;20463;-72
2022/05/30 05:38:34;;;;;;;16.77;12.15;;;;;;;21.34;100.00;99369.03;5032175;28;20065;-72
2022/05/30 05:40:59;;;;;;;20.35;11.60;;;;;;;22.06;100.00;99394.94;5031987;28;20027;-71
2022/05/30 05:43:25;;;;;;;14.10;11.45;;;;;;;21.46;100.00;99364.63;5031764;28;20036;-71
2022/05/30 05:45:50;;;;;;;14.23;11.60;;;;;;;21.86;100.00;99368.16;5032102;28;20055;-71
2022/05/30 05:48:16;;;;;;;15.30;11.95;;;;;;;22.07;100.00;99399.16;5014501;28;20056;-71
2022/05/30 05:50:43;;;;;;;17.52;11.57;;;;;;;21.90;100.00;99407.53;5031476;28;20033;-71
2022/05/30 05:53:10;;;;;;;12.75;10.73;;;;;;;22.05;100.00;99411.41;5031463;28;20041;-72
2022/05/30 05:55:37;;;;;;;15.20;10.98;;;;;;;21.80;100.00;99419.56;5031387;28;20033;-72
2022/05/30 05:58:03;;;;;;;15.63;10.85;;;;;;;21.17;100.00;99353.25;5031710;28;20384;-72
2022/05/30 06:00:31;;;;;;;13.60;11.10;;;;;;;22.76;100.00;99424.25;5031601;28;20037;-72
2022/05/30 06:02:57;;;;;;;17.50;10.85;;;;;;;21.99;100.00;99425.72;5031786;28;20095;-72
2022/05/30 06:05:22;;;;;;;15.98;10.70;;;;;;;22.66;100.00;99438.16;5031244;28;20036;-72
2022/05/30 06:07:48;;;;;;;15.15;10.93;;;;;;;22.69;100.00;99394.63;5031731;28;20025;-71
2022/05/30 06:10:15;;;;;;;18.20;11.10;;;;;;;22.86;100.00;99451.00;5013876;28;20041;-72
2022/05/30 06:12:43;;;;;;;16.77;11.75;;;;;;;22.55;100.00;99443.41;5031419;28;20094;-72
2022/05/30 06:15:14;;;;;;;12.73;10.88;;;;;;;23.03;100.00;99449.56;5031357;28;20037;-72
2022/05/30 06:17:43;;;;;;;18.10;11.40;;;;;;;23.04;100.00;99417.47;5013878;28;20083;-73
2022/05/30 06:20:11;;;;;;;17.05;10.95;;;;;;;22.66;100.00;99422.59;5031464;28;20041;-72
2022/05/30 06:22:36;;;;;;;16.55;11.35;;;;;;;23.60;100.00;99457.38;5031322;28;20025;-72
2022/05/30 06:25:03;;;;;;;18.10;10.57;;;;;;;23.27;100.00;99409.28;5031639;28;20045;-73
2022/05/30 06:27:29;;;;;;;15.15;9.30;;;;;;;23.79;100.00;99469.53;5013684;28;20029;-73
2022/05/30 06:29:54;;;;;;;15.20;9.60;;;;;;;24.02;100.00;99437.09;5013366;28;20095;-72
2022/05/30 06:32:20;;;;;;;13.63;8.75;;;;;;;23.71;100.00;99459.81;5031082;28;20034;-71
2022/05/30 06:34:45;;;;;;;15.27;8.38;;;;;;;23.29;100.00;99453.28;5013380;28;20029;-72
2022/05/30 06:37:11;;;;;;;19.50;9.65;;;;;;;23.47;100.00;99475.03;5031267;28;20033;-72
2022/05/30 06:39:38;;;;;;;16.88;9.93;;;;;;;23.96;100.00;99448.84;5031321;28;20065;-72
2022/05/30 06:42:07;;;;;;;12.65;8.55;;;;;;;24.08;100.00;99472.91;5031364;28;20030;-72
2022/05/30 06:44:35;;;;;;;16.20;8.95;;;;;;;24.69;100.00;99458.44;5030904;28;20087;-72
2022/05/30 06:47:01;;;;;;;19.33;8.75;;;;;;;24.20;100.00;99470.97;5013212;28;20033;-72
2022/05/30 06:49:26;;;;;;;14.60;9.20;;;;;;;24.24;100.00;99487.91;5030967;28;20025;-72
2022/05/30 06:51:52;;;;;;;11.27;8.57;;;;;;;25.02;100.00;99483.06;5031028;28;20040;-72
2022/05/30 06:54:17;;;;;;;14.23;8.70;;;;;;;24.78;100.00;99485.41;5031196;28;20037;-71
2022/05/30 06:59:27;;;;;;;12.82;8.80;;;;;;;24.65;100.00;99472.72;5030853;28;20084;-72
2022/05/30 07:01:53;;;;;;;14.65;8.88;;;;;;;24.88;100.00;99442.75;5030955;28;20049;-72
2022/05/30 07:04:19;;;;;;;17.10;8.40;;;;;;;25.55;100.00;99488.34;5013421;28;20024;-72
2022/05/30 07:06:45;;;;;;;13.35;7.78;;;;;;;24.91;100.00;99498.88;5034586;28;20044;-71
2022/05/30 07:09:12;;;;;;;19.77;8.25;;;;;;;25.44;100.00;99491.97;5034746;28;20037;-72
2022/05/30 07:11:39;;;;;;;13.45;8.05;;;;;;;24.38;100.00;99467.50;5034613;28;20040;-72
2022/05/30 07:14:06;;;;;;;18.13;7.90;;;;;;;26.08;100.00;99485.66;5034418;28;20088;-71
2022/05/30 07:16:31;;;;;;;13.65;8.27;;;;;;;25.94;100.00;99494.84;5034743;28;20423;-71
2022/05/30 07:18:57;;;;;;;16.05;7.38;;;;;;;26.38;100.00;99493.84;5017096;28;20029;-72
2022/05/30 07:21:22;;;;;;;13.70;7.32;;;;;;;25.24;100.00;99487.84;5034784;28;20082;-73
2022/05/30 07:23:49;;;;;;;13.23;7.95;;;;;;;24.70;100.00;99496.47;5034429;28;20037;-72
2022/05/30 07:26:19;;;;;;;14.88;7.80;;;;;;;26.21;100.00;99460.00;5034471;28;20087;-72
2022/05/30 07:28:45;;;;;;;13.73;6.93;;;;;;;25.07;100.00;99475.66;5034185;28;20033;-72
2022/05/30 07:31:14;;;;;;;12.65;7.30;;;;;;;24.12;100.00;99471.69;5034315;28;20029;-71
2022/05/30 07:33:42;;;;;;;12.98;7.30;;;;;;;25.16;100.00;99473.94;5016485;28;20033;-71
2022/05/30 07:36:10;;;;;;;10.32;6.30;;;;;;;26.24;100.00;99501.41;5034084;28;20026;-72
2022/05/30 07:38:36;;;;;;;12.05;6.57;;;;;;;26.42;100.00;99497.75;5034382;28;20029;-72
2022/05/30 07:41:03;;;;;;;12.82;6.55;;;;;;;27.18;100.00;99511.63;5034244;28;20029;-72
2022/05/30 07:43:28;;;;;;;8.98;4.38;;;;;;;26.05;100.00;99470.31;5033961;28;20034;-72
2022/05/30 07:45:54;;;;;;;6.05;3.08;;;;;;;26.48;100.00;99483.28;5016520;28;20531;-72
2022/05/30 07:48:19;;;;;;;8.52;2.95;;;;;;;26.27;100.00;99506.31;5034144;28;20550;-71
2022/05/30 07:50:45;;;;;;;7.80;3.28;;;;;;;26.93;100.00;99486.44;5015970;28;20026;-71
2022/05/30 07:53:10;;;;;;;4.65;2.70;;;;;;;26.73;100.00;99511.16;5033699;28;20573;-72
2022/05/30 07:55:39;;;;;;;5.93;2.63;;;;;;;26.52;100.00;99474.97;5034036;28;20061;-73
2022/05/30 07:58:04;;;;;;;6.65;3.20;;;;;;;26.59;100.00;99515.13;5015637;28;20045;-72
2022/05/30 08:00:33;;;;;;;4.30;2.63;;;;;;;27.19;99.53;99515.88;5016080;28;20029;-72
2022/05/30 08:03:00;;;;;;;6.03;2.83;;;;;;;26.60;100.00;99487.28;5033940;28;20116;-72
2022/05/30 08:05:26;;;;;;;5.30;2.42;;;;;;;27.10;99.51;99498.53;5033577;28;20458;-71
2022/05/30 08:07:52;;;;;;;5.82;2.63;;;;;;;27.68;95.51;99511.56;5015971;28;20048;-72
2022/05/30 08:10:19;;;;;;;5.93;2.70;;;;;;;27.73;97.38;99488.34;5033583;28;20483;-72
2022/05/30 08:12:45;;;;;;;8.73;2.30;;;;;;;27.20;94.51;99517.50;5015790;28;20037;-74
2022/05/30 08:15:12;;;;;;;6.35;2.35;;;;;;;27.11;97.64;99517.63;5016026;28;20029;-72
2022/05/30 08:17:37;;;;;;;5.32;2.70;;;;;;;28.02;93.45;99525.31;5032782;28;20096;-71
2022/05/30 08:20:05;;;;;;;5.10;2.55;;;;;;;26.17;100.00;99490.78;5033526;28;20033;-72
2022/05/30 08:22:34;;;;;;;6.50;2.78;;;;;;;26.79;100.00;99522.75;5033331;28;20558;-73
2022/05/30 08:25:03;;;;;;;5.78;2.50;;;;;;;26.28;100.00;99487.09;5033098;28;20019;-71
2022/05/30 08:27:29;;;;;;;4.47;2.60;;;;;;;26.72;100.00;99524.34;5015940;28;20032;-71
2022/05/30 08:29:55;;;;;;;4.63;2.60;;;;;;;26.74;99.93;99532.84;5033187;28;20030;-73
2022/05/30 08:32:20;;;;;;;5.63;2.50;;;;;;;27.16;98.14;99504.91;5033173;28;20510;-72
2022/05/30 08:34:46;;;;;;;4.28;2.63;;;;;;;27.83;93.84;99535.25;5015534;28;20179;-72
2022/05/30 08:37:11;;;;;;;4.65;2.17;;;;;;;27.32;92.90;99538.91;5033257;28;20120;-74
2022/05/30 08:42:28;;;;;;;7.68;2.50;;;;;;;27.57;92.86;99540.63;5033392;28;20052;-74
2022/05/30 08:44:55;;;;;;;4.40;2.47;;;;;;;28.12;86.41;99546.03;5015665;28;20468;-73
2022/05/30 08:47:26;;;;;;;8.27;2.42;;;;;;;27.81;88.24;99547.66;5033179;28;20034;-73
2022/05/30 08:49:53;;;;;;;;;;;;;;;28.14;84.13;99550.13;5015607;28;20519;-74
2022/05/30 08:52:56;;;;;;;5.95;2.80;;;;;;;27.95;85.83;99529.53;5033279;28;20393;-74
2022/05/30 08:55:49;;;;;;;5.72;2.67;;;;;;;27.90;81.56;99562.34;5015506;28;20034;-74
2022/05/30 08:58:14;;;;;;;8.93;2.47;;;;;;;28.39;81.39;99560.53;5032732;28;20030;-74
2022/05/30 09:00:56;;;;;;;4.95;2.35;;;;;;;29.01;79.79;99563.16;5032747;28;20032;-74
2022/05/30 09:03:35;;;;;;;7.30;2.67;;;;;;;28.57;81.00;99567.25;5032328;28;20048;-73
2022/05/30 09:06:23;;;;;;;6.72;3.45;;;;;;;27.53;91.99;99578.50;5032595;28;20112;-73
2022/05/30 09:08:55;;;;;;;8.95;4.97;;;;;;;26.42;100.00;99542.09;5009231;28;20038;-74
2022/05/30 09:11:33;;;;;;;11.60;5.20;;;;;;;27.91;100.00;99564.00;5032808;28;20046;-74
2022/05/30 09:14:09;;;;;;;11.05;5.20;;;;;;;27.25;100.00;99532.69;5015158;28;20036;-74
2022/05/30 09:16:41;;;;;;;10.95;5.32;;;;;;;26.62;100.00;99537.50;5032826;28;20033;-74
2022/05/30 09:19:10;;;;;;;7.20;3.53;;;;;;;27.09;100.00;99580.47;5032308;28;20053;-72
2022/05/30 09:21:37;;;;;;;10.18;5.03;;;;;;;26.57;100.00;99579.69;5014754;28;20050;-73
2022/05/30 09:24:03;;;;;;;8.07;5.20;;;;;;;26.56;100.00;99559.78;5014891;28;20025;-74
2022/05/30 09:26:42;;;;;;;8.73;5.00;;;;;;;27.08;100.00;99589.25;5032469;28;20066;-74
2022/05/30 09:29:24;;;;;;;8.98;5.00;;;;;;;26.87;100.00;99574.97;5031228;28;20518;-74
2022/05/30 09:32:08;;;;;;;10.43;5.10;;;;;;;26.33;100.00;99599.56;5031899;28;20033;-75
2022/05/30 09:34:39;;;;;;;12.32;5.35;;;;;;;26.24;100.00;99595.28;5014615;28;20044;-73
2022/05/30 09:37:05;;;;;;;8.30;3.42;;;;;;;26.24;100.00;99605.69;5032362;28;20034;-74
2022/05/30 09:39:46;;;;;;;6.32;3.33;;;;;;;25.97;100.00;99566.69;5032055;28;20037;-74
2022/05/30 09:42:28;;;;;;;6.22;2.58;;;;;;;25.81;100.00;99603.03;5031896;28;20040;-73
2022/05/30 09:45:07;;;;;;;7.20;2.60;;;;;;;26.12;100.00;99605.13;5014756;28;20033;-77
2022/05/30 09:47:34;;;;;;;6.43;2.78;;;;;;;25.79;100.00;99577.09;5024842;28;20061;-72
2022/05/30 09:50:12;;;;;;;5.18;3.10;;;;;;;26.27;100.00;99610.59;5012309;28;20121;-75
2022/05/30 09:52:39;;;;;;;7.38;2.92;;;;;;;27.10;100.00;99620.41;5012706;28;20495;-81
2022/05/30 09:55:27;;;;;;;5.47;2.75;;;;;;;27.78;92.26;99614.13;5022147;28;20030;-82
2022/05/30 09:57:54;;;;;;;5.78;2.70;;;;;;;27.21;92.28;99600.09;5031683;28;20522;-75
2022/05/30 10:00:49;;;;;;;5.85;2.80;;;;;;;27.84;88.77;99630.97;5014137;28;20041;-73
2022/05/30 10:03:27;;;;;;;4.85;2.70;;;;;;;27.23;88.99;99590.31;4994025;28;20054;-73
2022/05/30 10:06:12;;;;;;;4.63;2.55;;;;;;;26.98;92.92;99599.00;5010923;28;20049;-74
2022/05/30 10:08:37;;;;;;;6.22;2.75;;;;;;;27.82;87.08;99586.69;5011915;28;20523;-73
2022/05/30 10:11:02;;;;;;;7.07;2.60;;;;;;;28.44;83.37;99623.66;5011636;28;20034;-74
2022/05/30 10:13:46;;;;;;;6.78;2.55;;;;;;;28.01;83.62;99590.81;4993410;28;20080;-74
2022/05/30 10:16:12;;;;;;;7.30;2.55;;;;;;;27.68;83.95;99615.25;5011388;28;20029;-73
2022/05/30 10:18:55;;;;;;;4.82;2.67;;;;;;;27.51;86.52;99631.88;5011332;28;20029;-75
2022/05/30 10:30:36;;;;;;;4.65;2.95;;;;;;;27.97;82.49;99626.13;5011768;28;20049;-74
2022/05/30 10:33:15;;;;;;;5.13;2.78;;;;;;;28.10;81.33;99595.06;5011523;28;20037;-75
2022/05/30 10:36:03;;;;;;;5.70;2.70;;;;;;;28.56;80.49;99633.66;5010501;28;20029;-75
2022/05/30 10:38:41;;;;;;;6.28;2.53;;;;;;;29.04;77.90;99603.88;5011227;28;20354;-73
2022/05/30 10:41:20;;;;;;;7.00;2.65;;;;;;;28.38;79.55;99624.31;5014461;28;20037;-73
2022/05/30 10:44:03;;;;;;;7.68;2.80;;;;;;;28.47;78.52;99624.13;5015653;28;20216;-73
2022/05/30 10:46:39;;;;;;;5.15;2.65;;;;;;;28.29;81.06;99598.16;5015528;28;20041;-74
2022/05/30 10:49:12;;;;;;;3.72;2.50;;;;;;;28.20;81.26;99595.72;5015054;28;20099;-73
2022/05/30 10:51:57;;;;;;;5.38;2.70;;;;;;;29.15;78.72;99628.94;5015464;28;20056;-73
2022/05/30 10:54:31;;;;;;;4.40;3.05;;;;;;;28.77;75.06;99596.47;5015226;28;20026;-73
2022/05/30 10:57:29;;;;;;;6.47;3.08;;;;;;;28.55;73.05;99626.78;5015284;28;20054;-74
2022/05/30 11:00:12;;;;;;;5.28;2.70;;;;;;;29.03;76.83;99620.59;4997945;28;20026;-74
2022/05/30 11:02:52;;;;;;;6.03;2.80;;;;;;;28.73;74.57;99626.56;5014960;28;20046;-72
2022/05/30 11:05:27;;;;;;;5.45;2.50;;;;;;;29.14;73.48;99603.75;5015230;28;20029;-73
2022/05/30 11:08:05;;;;;;;5.90;2.70;;;;;;;28.80;72.06;99602.16;4997331;28;20487;-73
2022/05/30 11:10:39;;;;;;;6.30;2.72;;;;;;;28.46;74.23;99626.94;5015053;28;20030;-74
2022/05/30 11:13:20;;;;;;;7.15;2.63;;;;;;;28.81;71.00;99590.72;5014775;28;20135;-72
2022/05/30 11:15:49;;;;;;;;;;;;;;;29.16;71.86;99618.28;5015293;28;20411;-73
2022/05/30 11:18:42;;;;;;;6.40;3.15;;;;;;;27.92;76.78;99613.50;5014446;28;20389;-73
2022/05/30 11:21:17;;;;;;;7.15;2.63;;;;;;;29.23;73.39;99616.63;4996692;28;20045;-72
2022/05/30 11:23:43;;;;;;;6.22;2.78;;;;;;;29.26;70.86;99611.03;5014778;28;20560;-72
2022/05/30 11:26:11;;;;;;;5.53;3.50;;;;;;;29.61;70.44;99626.25;5014715;28;20041;-74
2022/05/30 11:29:05;;;;;;;6.60;3.00;;;;;;;28.98;72.18;99594.09;5013141;28;20037;-73
2022/05/30 11:31:58;;;;;;;4.72;3.05;;;;;;;28.96;73.01;99619.66;4997316;28;20049;-74
2022/05/30 11:34:47;;;;;;;6.03;2.90;;;;;;;28.81;73.40;99631.78;5014526;28;20064;-73
2022/05/30 11:37:43;;;;;;;4.95;2.72;;;;;;;29.99;67.94;99616.66;5014928;28;20108;-74
2022/05/30 11:40:20;;;;;;;6.05;2.67;;;;;;;28.12;67.87;99630.53;5014789;28;20088;-75
2022/05/30 11:43:09;;;;;;;6.65;3.00;;;;;;;28.32;71.86;99624.97;5014592;28;20041;-74
2022/05/30 11:45:54;;;;;;;5.28;2.70;;;;;;;29.05;70.02;99616.00;5014711;28;20034;-72
2022/05/30 11:48:26;;;;;;;5.70;3.13;;;;;;;29.53;68.42;99620.25;5014373;28;20041;-74
2022/05/30 11:51:07;;;;;;;7.07;2.97;;;;;;;28.67;69.63;99608.91;5014006;28;20026;-73
2022/05/30 11:54:03;;;;;;;6.18;3.15;;;;;;;30.00;65.21;99618.31;5013440;28;20033;-74